Time;durP1;ratioP1;P1;durP2;ratioP2;P2;SDS_P1;SDS_P2;PMS_P1;PMS_P2;Temp;Humidity;BMP_temperature;BMP_pressure;BME280_temperature;BME280_humidity;BME280_pressure;Samples;Min_cycle;Max_cycle;Signal;HPM_P1;HPM_P2
2021/08/31 00:01:30;;;;;;;34.97;12.70;;;;;;;11.32;96.27;102646.25;4994860;28;20034;-75
2021/08/31 00:03:56;;;;;;;37.08;13.38;;;;;;;11.31;96.30;102646.34;4995407;28;20034;-75
2021/08/31 00:06:21;;;;;;;38.60;14.40;;;;;;;11.29;96.36;102639.31;4995521;28;20113;-75
2021/08/31 00:08:47;;;;;;;25.00;12.13;;;;;;;11.29;96.22;102641.13;4997842;28;20065;-75
2021/08/31 00:11:12;;;;;;;24.63;11.45;;;;;;;11.26;96.24;102644.84;4995942;28;20427;-75
2021/08/31 00:13:37;;;;;;;26.77;12.48;;;;;;;11.25;96.17;102636.94;4994962;28;20038;-74
2021/08/31 00:16:03;;;;;;;32.90;13.07;;;;;;;11.22;96.38;102643.31;4995447;28;20035;-75
2021/08/31 00:18:28;;;;;;;29.52;12.57;;;;;;;11.20;96.50;102644.38;4994337;28;20031;-75
2021/08/31 00:20:54;;;;;;;38.08;13.98;;;;;;;11.16;96.09;102643.72;4994962;28;20117;-75
2021/08/31 00:23:19;;;;;;;38.13;13.90;;;;;;;11.16;96.21;102650.84;4994202;28;20081;-75
2021/08/31 00:25:45;;;;;;;32.88;13.40;;;;;;;11.14;96.43;102648.28;4994833;28;20497;-75
2021/08/31 00:28:10;;;;;;;31.08;12.38;;;;;;;11.11;96.29;102651.16;4995018;28;20088;-75
2021/08/31 00:30:36;;;;;;;31.20;12.80;;;;;;;11.09;96.45;102650.38;4994227;28;20428;-75
2021/08/31 00:33:01;;;;;;;29.70;13.40;;;;;;;11.07;96.46;102650.47;4994626;28;20042;-75
2021/08/31 00:35:26;;;;;;;30.38;12.63;;;;;;;11.06;96.35;102646.13;4994107;28;20037;-74
2021/08/31 00:37:52;;;;;;;28.70;12.60;;;;;;;11.06;96.25;102661.22;4994416;28;20053;-74
2021/08/31 00:40:17;;;;;;;32.22;13.32;;;;;;;11.06;96.34;102658.56;4994574;28;20058;-74
2021/08/31 00:42:43;;;;;;;34.92;14.20;;;;;;;11.03;96.48;102659.66;4994202;28;20030;-74
2021/08/31 00:45:08;;;;;;;51.83;17.75;;;;;;;11.00;96.62;102656.31;5009509;28;20061;-74
2021/08/31 00:47:34;;;;;;;39.72;15.40;;;;;;;10.98;96.40;102659.06;4993425;28;20034;-74
2021/08/31 00:49:59;;;;;;;25.33;13.20;;;;;;;10.96;96.72;102655.66;4994320;28;20089;-74
2021/08/31 00:52:24;;;;;;;19.67;11.07;;;;;;;10.94;96.63;102663.75;4993615;28;20378;-75
2021/08/31 00:54:50;;;;;;;43.58;15.90;;;;;;;10.94;96.65;102669.06;4994492;28;20038;-74
2021/08/31 00:57:15;;;;;;;39.03;16.45;;;;;;;10.96;96.59;102660.09;4994247;28;20093;-74
2021/08/31 00:59:41;;;;;;;37.50;13.70;;;;;;;10.97;96.64;102664.50;4993255;28;20064;-74
2021/08/31 01:02:07;;;;;;;31.60;13.70;;;;;;;10.97;96.59;102662.66;4993824;28;20438;-75
2021/08/31 01:04:32;;;;;;;33.83;12.35;;;;;;;10.98;96.70;102663.53;4993124;28;20039;-74
2021/08/31 01:06:59;;;;;;;24.63;12.15;;;;;;;10.96;96.87;102660.97;4992751;28;20034;-75
2021/08/31 01:09:28;;;;;;;24.52;10.93;;;;;;;10.94;96.68;102663.75;4993320;28;20031;-75
2021/08/31 01:11:55;;;;;;;26.67;13.50;;;;;;;10.92;96.57;102668.28;4993870;28;20069;-74
2021/08/31 01:14:22;;;;;;;26.85;11.45;;;;;;;10.93;96.67;102669.16;4993942;28;20042;-75
2021/08/31 01:16:49;;;;;;;22.00;10.05;;;;;;;10.90;96.13;102664.88;4994080;28;20049;-75
2021/08/31 01:19:17;;;;;;;24.45;11.63;;;;;;;10.90;96.17;102659.56;4993702;28;20041;-75
2021/08/31 01:21:43;;;;;;;17.27;8.85;;;;;;;10.88;95.70;102661.47;4993258;28;20569;-74
2021/08/31 01:24:08;;;;;;;35.03;12.60;;;;;;;10.89;95.80;102660.50;4993254;28;20085;-74
2021/08/31 01:26:33;;;;;;;27.20;11.77;;;;;;;10.88;95.80;102666.81;4993131;28;20454;-75
2021/08/31 01:29:00;;;;;;;32.35;12.38;;;;;;;10.89;95.78;102671.16;4993411;28;20046;-75
2021/08/31 01:31:25;;;;;;;29.35;12.70;;;;;;;10.92;96.02;102675.44;4993212;28;20030;-75
2021/08/31 01:33:50;;;;;;;42.10;15.68;;;;;;;10.91;96.13;102679.03;4993065;28;20048;-75
2021/08/31 01:36:22;;;;;;;35.80;13.90;;;;;;;10.90;96.29;102682.69;4993711;28;20030;-75
2021/08/31 01:38:48;;;;;;;;;;;;;;;10.89;96.19;102684.47;4993330;28;20054;-75
2021/08/31 01:41:13;;;;;;;35.28;15.90;;;;;;;10.87;96.50;102675.72;4993422;28;20437;-75
2021/08/31 01:43:39;;;;;;;29.55;13.82;;;;;;;10.89;96.51;102687.13;4992836;28;20418;-75
2021/08/31 01:46:05;;;;;;;28.63;13.05;;;;;;;10.88;96.63;102688.09;4993322;28;20030;-75
2021/08/31 01:48:30;;;;;;;32.90;13.68;;;;;;;10.86;96.59;102683.81;4992839;28;20030;-74
2021/08/31 01:50:56;;;;;;;28.60;15.63;;;;;;;10.88;96.96;102690.75;4993330;28;20054;-75
2021/08/31 01:53:21;;;;;;;28.45;12.63;;;;;;;10.86;96.95;102683.81;4992816;28;20510;-75
2021/08/31 01:55:46;;;;;;;27.40;12.68;;;;;;;10.83;96.85;102682.19;4992271;28;20336;-75
2021/08/31 01:58:12;;;;;;;28.35;12.20;;;;;;;10.81;96.58;102685.88;4992441;28;20037;-75
2021/08/31 02:00:38;;;;;;;25.73;12.27;;;;;;;10.78;96.51;102689.63;4992657;28;20062;-75
2021/08/31 02:03:03;;;;;;;42.38;15.02;;;;;;;10.77;96.52;102687.91;4993438;28;20534;-75
2021/08/31 02:05:29;;;;;;;28.38;12.90;;;;;;;10.75;96.38;102693.31;4992277;28;20030;-76
2021/08/31 02:07:54;;;;;;;43.67;16.52;;;;;;;10.74;96.25;102693.41;4992839;28;20471;-75
2021/08/31 02:10:20;;;;;;;39.13;16.92;;;;;;;10.76;96.38;102689.72;4992881;28;20042;-75
2021/08/31 02:12:45;;;;;;;46.55;18.40;;;;;;;10.77;96.90;102686.09;4992369;28;20062;-75
2021/08/31 02:15:11;;;;;;;35.95;14.52;;;;;;;10.77;97.04;102695.88;4992785;28;20062;-75
2021/08/31 02:17:36;;;;;;;39.75;17.52;;;;;;;10.77;96.89;102690.56;4991108;28;20030;-75
2021/08/31 02:20:03;;;;;;;36.75;16.98;;;;;;;10.76;96.91;102691.50;4992994;28;20125;-75
2021/08/31 02:22:28;;;;;;;35.40;14.55;;;;;;;10.73;96.82;102691.69;4992838;28;20038;-75
2021/08/31 02:24:53;;;;;;;34.63;14.02;;;;;;;10.71;96.85;102686.47;4992364;28;20041;-75
2021/08/31 02:27:19;;;;;;;35.72;15.00;;;;;;;10.71;96.90;102688.28;4992908;28;20508;-75
2021/08/31 02:29:44;;;;;;;44.22;17.45;;;;;;;10.68;96.57;102683.16;4992623;28;20030;-76
2021/08/31 02:32:10;;;;;;;46.33;17.92;;;;;;;10.66;96.71;102682.38;4992894;28;20057;-75
2021/08/31 02:34:35;;;;;;;46.75;18.85;;;;;;;10.66;96.70;102685.03;4992339;28;20482;-76
2021/08/31 02:37:01;;;;;;;40.75;16.85;;;;;;;10.64;96.58;102682.47;4992888;28;20058;-75
2021/08/31 02:39:26;;;;;;;53.58;20.17;;;;;;;10.63;96.58;102683.44;4992883;28;20085;-75
2021/08/31 02:41:51;;;;;;;40.47;17.45;;;;;;;10.62;96.78;102680.88;4992028;28;20070;-76
2021/08/31 02:44:17;;;;;;;48.78;20.60;;;;;;;10.59;96.53;102679.25;4992780;28;20041;-75
2021/08/31 02:46:42;;;;;;;39.85;15.65;;;;;;;10.57;96.37;102678.50;4992421;28;20459;-76
2021/08/31 02:49:08;;;;;;;45.60;18.13;;;;;;;10.52;96.29;102681.41;4992522;28;20061;-75
2021/08/31 02:51:34;;;;;;;31.55;15.25;;;;;;;10.51;96.13;102677.06;4992749;28;20081;-75
2021/08/31 02:53:59;;;;;;;38.40;14.98;;;;;;;10.51;96.23;102677.06;4992127;28;20490;-76
2021/08/31 02:56:25;;;;;;;35.60;14.13;;;;;;;10.51;95.89;102684.16;4993092;28;20041;-76
2021/08/31 02:58:50;;;;;;;47.85;18.40;;;;;;;10.51;95.89;102692.16;5007109;28;20061;-76
2021/08/31 03:01:31;;;;;;;51.35;20.67;;;;;;;10.51;96.15;102677.06;4992410;28;20109;-75
2021/08/31 03:03:57;;;;;;;49.15;19.70;;;;;;;10.48;96.03;102682.56;4992143;28;20031;-76
2021/08/31 03:06:23;;;;;;;55.40;20.30;;;;;;;10.45;96.18;102680.09;4992626;28;20482;-75
2021/08/31 03:08:49;;;;;;;51.60;21.73;;;;;;;10.47;96.36;102693.31;4991975;28;20109;-75
2021/08/31 03:11:14;;;;;;;47.65;20.77;;;;;;;10.47;96.64;102688.00;4996072;28;20454;-75
2021/08/31 03:13:40;;;;;;;52.90;19.52;;;;;;;10.45;96.88;102689.88;4995350;28;20034;-76
2021/08/31 03:16:05;;;;;;;57.17;21.85;;;;;;;10.45;97.14;102695.19;4996091;28;20097;-76
2021/08/31 03:18:30;;;;;;;60.60;23.35;;;;;;;10.46;97.03;102686.25;4994784;28;20038;-75
2021/08/31 03:20:55;;;;;;;54.20;20.52;;;;;;;10.47;97.31;102686.19;4995212;28;20085;-75
2021/08/31 03:23:21;;;;;;;53.05;19.77;;;;;;;10.46;97.25;102688.94;4995616;28;20132;-75
2021/08/31 03:25:46;;;;;;;49.65;19.67;;;;;;;10.42;97.23;102688.28;4995013;28;20038;-75
2021/08/31 03:28:12;;;;;;;50.20;19.42;;;;;;;10.39;97.41;102685.81;4995868;28;20035;-75
2021/08/31 03:30:38;;;;;;;54.25;21.63;;;;;;;10.38;97.28;102689.41;4995665;28;20391;-75
2021/08/31 03:33:03;;;;;;;44.63;18.63;;;;;;;10.37;97.38;102680.53;4995190;28;20034;-75
2021/08/31 03:35:29;;;;;;;47.60;19.27;;;;;;;10.34;97.46;102685.19;4995922;28;20034;-75
2021/08/31 03:37:54;;;;;;;67.97;24.52;;;;;;;10.32;97.56;102687.09;4995217;28;20030;-75
2021/08/31 03:40:19;;;;;;;86.47;29.42;;;;;;;10.30;97.67;102695.16;4996122;28;20037;-75
2021/08/31 03:42:46;;;;;;;61.58;23.35;;;;;;;10.30;97.72;102688.97;4994646;28;20038;-75
2021/08/31 03:45:12;;;;;;;61.15;24.35;;;;;;;10.31;97.56;102698.66;4995567;28;20038;-75
2021/08/31 03:47:37;;;;;;;56.53;21.55;;;;;;;10.32;97.46;102706.56;4995525;28;20023;-75
2021/08/31 03:50:03;;;;;;;48.75;18.70;;;;;;;10.29;97.67;102701.41;4994713;28;20605;-74
2021/08/31 03:52:28;;;;;;;64.15;24.23;;;;;;;10.28;97.59;102704.16;4995095;28;20034;-75
2021/08/31 03:54:54;;;;;;;54.20;22.45;;;;;;;10.28;97.43;102697.03;4995155;28;20038;-74
2021/08/31 03:57:19;;;;;;;54.72;20.88;;;;;;;10.27;97.58;102699.78;4995475;28;20026;-74
2021/08/31 03:59:44;;;;;;;58.25;23.75;;;;;;;10.23;97.51;102689.31;4994600;28;20046;-75
2021/08/31 04:02:10;;;;;;;62.00;22.63;;;;;;;10.27;97.56;102695.34;4995309;28;20113;-75
2021/08/31 04:04:35;;;;;;;75.13;28.17;;;;;;;10.31;97.72;102699.50;4995184;28;20058;-75
2021/08/31 04:07:01;;;;;;;64.90;25.13;;;;;;;10.33;97.72;102700.31;4994942;28;20089;-75
2021/08/31 04:09:26;;;;;;;55.83;22.48;;;;;;;10.31;97.56;102698.66;4994870;28;20034;-75
2021/08/31 04:11:51;;;;;;;62.85;26.10;;;;;;;10.29;97.46;102700.56;4994472;28;20113;-76
2021/08/31 04:14:17;;;;;;;45.35;18.02;;;;;;;10.24;97.57;102704.34;4995074;28;20387;-75
2021/08/31 04:16:43;;;;;;;66.30;24.95;;;;;;;10.22;97.48;102706.22;4994970;28;20068;-75
2021/08/31 04:19:08;;;;;;;65.00;23.88;;;;;;;10.20;97.55;102700.16;4994709;28;20034;-75
2021/08/31 04:21:34;;;;;;;56.85;23.88;;;;;;;10.22;97.62;102714.22;4994278;28;20372;-75
2021/08/31 04:23:59;;;;;;;58.92;24.00;;;;;;;10.24;97.65;102714.16;4993266;28;20544;-75
2021/08/31 04:26:24;;;;;;;60.55;23.60;;;;;;;10.21;97.58;102714.31;4994975;28;20039;-75
2021/08/31 04:28:50;;;;;;;37.08;17.42;;;;;;;10.18;97.51;102719.81;4994392;28;20041;-76
2021/08/31 04:31:17;;;;;;;36.83;16.65;;;;;;;10.16;97.41;102722.56;4994884;28;20443;-75
2021/08/31 04:33:43;;;;;;;51.13;22.10;;;;;;;10.16;97.42;102727.03;4994697;28;20034;-75
2021/08/31 04:36:08;;;;;;;59.53;22.52;;;;;;;10.14;97.23;102720.97;4994185;28;20036;-75
2021/08/31 04:38:33;;;;;;;51.30;21.23;;;;;;;10.12;97.36;102722.81;4994712;28;20038;-75
2021/08/31 04:40:59;;;;;;;45.33;20.33;;;;;;;10.11;97.23;102726.47;4994030;28;20081;-75
2021/08/31 04:43:26;;;;;;;47.28;20.88;;;;;;;10.07;97.18;102723.94;4994617;28;20475;-75
2021/08/31 04:45:52;;;;;;;57.00;22.80;;;;;;;10.03;97.28;102727.75;4993928;28;20177;-76
2021/08/31 04:48:17;;;;;;;32.05;15.63;;;;;;;10.01;97.11;102731.44;4994147;28;20537;-75
2021/08/31 04:50:42;;;;;;;57.65;23.63;;;;;;;9.99;96.96;102731.53;4994097;28;20034;-75
2021/08/31 04:53:08;;;;;;;44.35;18.25;;;;;;;9.98;97.35;102729.81;4993759;28;20038;-74
2021/08/31 04:55:33;;;;;;;43.00;17.58;;;;;;;9.97;97.15;102733.44;4994575;28;20026;-74
2021/08/31 04:57:58;;;;;;;37.78;18.52;;;;;;;9.97;96.99;102743.19;4993653;28;20511;-74
2021/08/31 05:00:24;;;;;;;39.90;16.20;;;;;;;9.98;96.97;102742.25;4994411;28;20046;-74
2021/08/31 05:02:50;;;;;;;44.58;18.65;;;;;;;9.96;97.03;102741.50;4994220;28;20046;-74
2021/08/31 05:05:16;;;;;;;47.65;19.00;;;;;;;9.96;97.00;102736.19;4993477;28;20146;-74
2021/08/31 05:07:41;;;;;;;47.70;20.35;;;;;;;9.96;97.16;102737.03;4994143;28;20206;-74
2021/08/31 05:10:07;;;;;;;47.67;19.77;;;;;;;9.97;97.42;102737.88;4992995;28;20033;-75
2021/08/31 05:12:33;;;;;;;50.95;21.45;;;;;;;9.94;97.60;102733.63;4992617;28;20034;-74
2021/08/31 05:14:58;;;;;;;39.38;19.02;;;;;;;9.93;97.52;102733.66;4993409;28;20157;-74
2021/08/31 05:17:24;;;;;;;48.13;20.05;;;;;;;9.90;97.49;102732.06;4993956;28;20034;-75
2021/08/31 05:19:49;;;;;;;39.95;17.05;;;;;;;9.88;97.54;102729.50;4993851;28;20109;-74
2021/08/31 05:22:15;;;;;;;37.42;16.38;;;;;;;9.90;97.58;102734.72;5008506;28;20042;-74
2021/08/31 05:24:40;;;;;;;39.30;17.27;;;;;;;9.92;97.53;102739.97;4993956;28;20026;-74
2021/08/31 05:27:06;;;;;;;41.33;17.95;;;;;;;9.92;97.47;102740.81;4993096;28;20486;-74
2021/08/31 05:29:32;;;;;;;28.95;15.23;;;;;;;9.92;97.26;102732.81;4993785;28;20042;-74
2021/08/31 05:31:57;;;;;;;46.10;20.98;;;;;;;9.95;97.42;102735.31;4992025;28;20045;-75
2021/08/31 05:34:23;;;;;;;41.95;19.35;;;;;;;9.99;97.60;102742.16;4993648;28;20041;-74
2021/08/31 05:36:48;;;;;;;52.72;21.30;;;;;;;10.02;97.69;102749.97;4993391;28;20113;-74
2021/08/31 05:39:13;;;;;;;48.58;21.23;;;;;;;10.05;97.78;102747.13;4993003;28;20081;-74
2021/08/31 05:41:39;;;;;;;44.95;20.20;;;;;;;10.09;97.51;102755.81;4993230;28;20117;-74
2021/08/31 05:44:04;;;;;;;41.17;18.05;;;;;;;10.12;97.57;102749.44;4992821;28;20497;-74
2021/08/31 05:46:31;;;;;;;50.53;23.88;;;;;;;10.19;98.00;102753.44;4993205;28;20037;-74
2021/08/31 05:48:57;;;;;;;52.97;22.58;;;;;;;10.25;98.11;102758.41;4993709;28;20038;-74
2021/08/31 05:51:22;;;;;;;53.17;22.83;;;;;;;10.31;98.02;102766.03;4992487;28;20057;-74
2021/08/31 05:53:47;;;;;;;44.85;20.15;;;;;;;10.34;97.99;102760.56;4993302;28;20085;-74
2021/08/31 05:56:13;;;;;;;51.42;20.55;;;;;;;10.41;98.17;102767.22;4992620;28;20039;-74
2021/08/31 05:58:38;;;;;;;59.97;22.70;;;;;;;10.50;97.86;102767.66;4993049;28;20027;-74
2021/08/31 06:01:03;;;;;;;46.70;21.65;;;;;;;10.55;98.30;102762.88;4992584;28;20053;-75
2021/08/31 06:03:29;;;;;;;50.47;21.67;;;;;;;10.61;98.57;102774.97;4992954;28;20034;-74
2021/08/31 06:05:54;;;;;;;49.72;21.30;;;;;;;10.68;98.68;102771.00;4993094;28;20451;-74
2021/08/31 06:08:19;;;;;;;46.70;21.13;;;;;;;10.73;98.69;102780.44;4992547;28;20475;-74
2021/08/31 06:10:45;;;;;;;62.55;24.25;;;;;;;10.82;98.76;102786.13;4993120;28;20034;-74
2021/08/31 06:13:11;;;;;;;72.43;23.30;;;;;;;10.91;98.77;102790.91;4992315;28;20030;-74
2021/08/31 06:15:36;;;;;;;62.85;23.80;;;;;;;11.00;98.70;102790.34;4993174;28;20034;-74
2021/08/31 06:18:01;;;;;;;62.08;23.48;;;;;;;11.08;98.75;102788.06;4992592;28;20034;-76
2021/08/31 06:20:27;;;;;;;68.63;23.20;;;;;;;11.19;98.84;102792.72;5007990;28;20030;-74
2021/08/31 06:22:52;;;;;;;64.68;25.70;;;;;;;11.29;98.91;102785.88;4992662;28;20034;-74
2021/08/31 06:25:18;;;;;;;65.32;23.48;;;;;;;11.42;99.05;102795.75;4992262;28;20034;-74
2021/08/31 06:27:43;;;;;;;58.13;24.55;;;;;;;11.57;99.31;102793.91;4992884;28;20035;-74
2021/08/31 06:30:09;;;;;;;55.78;22.95;;;;;;;11.73;99.01;102796.47;4992377;28;20031;-75
2021/08/31 06:32:34;;;;;;;71.82;25.02;;;;;;;11.94;99.44;102797.78;4993112;28;20031;-74
2021/08/31 06:34:59;;;;;;;68.00;23.98;;;;;;;12.14;99.30;102798.28;4992980;28;20038;-74
2021/08/31 06:37:25;;;;;;;77.55;25.48;;;;;;;12.36;99.68;102800.38;4991072;28;20030;-74
2021/08/31 06:39:50;;;;;;;57.78;21.35;;;;;;;12.55;99.79;102799.97;4992790;28;20035;-74
2021/08/31 06:42:16;;;;;;;54.67;18.35;;;;;;;12.65;99.99;102800.22;4992250;28;20117;-74
2021/08/31 06:44:41;;;;;;;44.33;15.93;;;;;;;12.71;99.53;102805.13;4995860;28;20034;-74
2021/08/31 06:47:07;;;;;;;30.65;12.32;;;;;;;12.75;99.61;102797.75;4996044;28;20117;-75
2021/08/31 06:49:33;;;;;;;37.63;12.38;;;;;;;12.79;99.65;102797.44;4996742;28;20406;-74
2021/08/31 06:51:59;;;;;;;38.45;12.13;;;;;;;12.84;99.47;102806.00;4996398;28;20042;-74
2021/08/31 06:54:25;;;;;;;33.75;11.93;;;;;;;12.92;99.67;102804.63;4995887;28;20040;-74
2021/08/31 06:56:50;;;;;;;35.22;10.20;;;;;;;12.95;99.41;102799.91;4996681;28;20114;-74
2021/08/31 06:59:16;;;;;;;31.40;10.23;;;;;;;13.03;98.76;102810.94;4995808;28;20047;-75
2021/08/31 07:01:41;;;;;;;35.55;9.65;;;;;;;13.09;98.52;102808.78;4996160;28;20065;-74
2021/08/31 07:04:07;;;;;;;24.45;9.13;;;;;;;13.15;98.08;102811.00;4996366;28;20062;-74
2021/08/31 07:06:32;;;;;;;29.83;9.48;;;;;;;13.23;97.61;102806.84;4994566;28;20038;-74
2021/08/31 07:08:59;;;;;;;29.70;8.57;;;;;;;13.33;97.28;102811.53;4996234;28;20026;-75
2021/08/31 07:11:24;;;;;;;26.83;8.32;;;;;;;13.41;96.71;102817.22;4995639;28;20035;-75
2021/08/31 07:13:50;;;;;;;21.63;7.63;;;;;;;13.51;95.62;102804.03;4995991;28;20039;-74
2021/08/31 07:16:15;;;;;;;25.05;7.15;;;;;;;13.58;95.35;102811.53;5010660;28;20497;-76
2021/08/31 07:18:40;;;;;;;24.75;7.50;;;;;;;13.68;94.47;102819.72;4994454;28;20479;-74
2021/08/31 07:21:06;;;;;;;19.95;7.10;;;;;;;13.76;93.94;102819.16;4996100;28;20492;-75
2021/08/31 07:23:31;;;;;;;22.80;7.43;;;;;;;13.85;93.95;102821.19;4995404;28;20069;-75
2021/08/31 07:25:56;;;;;;;30.73;7.75;;;;;;;13.94;93.45;102816.97;4995678;28;20157;-74
2021/08/31 07:28:22;;;;;;;25.33;6.40;;;;;;;14.07;93.28;102806.22;4995329;28;20073;-74
2021/08/31 07:30:47;;;;;;;15.05;6.05;;;;;;;14.20;92.65;102817.72;5010985;28;20502;-75
2021/08/31 07:33:13;;;;;;;16.70;5.47;;;;;;;14.34;91.74;102822.03;4995096;28;20352;-76
2021/08/31 07:35:38;;;;;;;21.27;6.88;;;;;;;14.47;91.26;102819.28;4995813;28;20478;-75
2021/08/31 07:38:05;;;;;;;17.88;5.40;;;;;;;14.58;90.96;102821.13;4995649;28;20037;-74
2021/08/31 07:40:31;;;;;;;28.15;6.40;;;;;;;14.70;88.78;102817.53;4995194;28;20034;-75
2021/08/31 07:42:56;;;;;;;26.13;6.03;;;;;;;14.84;87.81;102826.34;4995776;28;20490;-75
2021/08/31 07:45:21;;;;;;;19.83;5.35;;;;;;;14.98;85.39;102823.44;5010146;28;20038;-75
2021/08/31 07:47:48;;;;;;;19.27;5.30;;;;;;;15.18;85.65;102835.28;4995641;28;20093;-74
2021/08/31 07:50:14;;;;;;;17.42;5.00;;;;;;;15.47;84.91;102834.81;4995136;28;20040;-76
2021/08/31 07:52:40;;;;;;;21.95;5.82;;;;;;;15.80;82.81;102833.94;4995193;28;20085;-75
2021/08/31 07:55:07;;;;;;;19.70;5.25;;;;;;;16.07;81.38;102824.59;4994541;28;20459;-74
2021/08/31 07:57:34;;;;;;;21.88;4.85;;;;;;;16.28;80.63;102823.81;4994685;28;20113;-74
2021/08/31 08:00:00;;;;;;;18.70;5.63;;;;;;;16.42;80.51;102826.19;4995424;28;20055;-74
2021/08/31 08:02:25;;;;;;;21.92;5.38;;;;;;;16.66;80.55;102830.44;4994783;28;20117;-74
2021/08/31 08:04:58;;;;;;;12.88;5.13;;;;;;;16.88;77.66;102833.06;4995358;28;20026;-74
2021/08/31 08:07:24;;;;;;;12.85;4.50;;;;;;;17.06;77.56;102827.91;4994591;28;20041;-74
2021/08/31 08:09:49;;;;;;;26.75;6.03;;;;;;;17.37;75.02;102832.44;4995203;28;20030;-74
2021/08/31 08:12:14;;;;;;;17.73;5.10;;;;;;;17.75;73.04;102833.53;4995146;28;20108;-73
2021/08/31 08:14:40;;;;;;;14.23;4.68;;;;;;;18.10;71.15;102833.06;4994492;28;20058;-74
2021/08/31 08:17:05;;;;;;;13.00;4.85;;;;;;;18.24;71.52;102839.03;4995387;28;20034;-74
2021/08/31 08:19:31;;;;;;;21.08;5.65;;;;;;;18.42;70.18;102841.84;4994446;28;20089;-74
2021/08/31 08:21:56;;;;;;;19.35;4.72;;;;;;;18.54;69.47;102838.03;4994920;28;20031;-74
2021/08/31 08:24:22;;;;;;;21.77;5.55;;;;;;;18.74;69.92;102846.94;4994386;28;20034;-74
2021/08/31 08:26:48;;;;;;;19.30;4.80;;;;;;;18.82;69.32;102846.22;4995194;28;20034;-74
2021/08/31 08:29:13;;;;;;;17.27;4.88;;;;;;;18.94;69.37;102846.94;4994917;28;20030;-73
2021/08/31 08:31:44;;;;;;;19.00;5.00;;;;;;;19.34;68.01;102841.25;4994022;28;20501;-74
2021/08/31 08:34:10;;;;;;;16.77;5.13;;;;;;;19.67;65.75;102844.34;4994785;28;20034;-74
2021/08/31 08:36:35;;;;;;;20.50;4.93;;;;;;;20.06;64.70;102843.28;4994084;28;20045;-74
2021/08/31 08:39:00;;;;;;;20.73;5.93;;;;;;;20.08;64.14;102852.94;4994765;28;20026;-74
2021/08/31 08:41:26;;;;;;;16.85;5.65;;;;;;;19.68;62.16;102843.34;4994097;28;20542;-74
2021/08/31 08:43:58;;;;;;;13.13;5.28;;;;;;;19.00;65.56;102852.59;4994664;28;20034;-74
2021/08/31 08:46:23;;;;;;;13.73;4.63;;;;;;;18.56;66.06;102848.69;4994075;28;20080;-75
2021/08/31 08:48:49;;;;;;;16.42;5.43;;;;;;;18.75;67.70;102850.47;4994478;28;20062;-74
2021/08/31 08:51:14;;;;;;;17.02;4.32;;;;;;;19.23;65.57;102857.63;4994805;28;20468;-74
2021/08/31 08:53:40;;;;;;;12.95;4.40;;;;;;;19.91;63.55;102859.16;4993510;28;20042;-73
2021/08/31 08:56:05;;;;;;;16.40;4.88;;;;;;;20.40;60.16;102854.25;4994093;28;20117;-74
2021/08/31 08:58:31;;;;;;;15.20;5.15;;;;;;;20.68;61.38;102861.44;4993429;28;20525;-73
2021/08/31 09:01:04;;;;;;;20.42;5.22;;;;;;;20.89;59.60;102850.28;4994240;28;20034;-73
2021/08/31 09:03:39;;;;;;;11.80;4.53;;;;;;;21.90;58.71;102860.41;4993678;28;20026;-74
2021/08/31 09:06:16;;;;;;;15.57;4.43;;;;;;;23.46;51.75;102866.81;4994300;28;20037;-73
2021/08/31 09:09:06;;;;;;;17.35;4.60;;;;;;;25.18;45.77;102856.50;4992254;28;20031;-74
2021/08/31 09:11:32;;;;;;;16.75;5.00;;;;;;;26.21;42.98;102860.09;4993435;28;20026;-75
2021/08/31 09:14:27;;;;;;;10.40;4.10;;;;;;;26.78;43.91;102862.88;4993683;28;20031;-73
2021/08/31 09:17:20;;;;;;;13.20;4.53;;;;;;;26.33;43.62;102857.66;4993958;28;20030;-74
2021/08/31 09:19:45;;;;;;;15.98;5.28;;;;;;;25.96;44.19;102866.91;4992146;28;20086;-74
2021/08/31 09:22:14;;;;;;;21.55;4.97;;;;;;;25.78;43.74;102864.63;4993729;28;20093;-74
2021/08/31 09:24:41;;;;;;;16.38;4.63;;;;;;;25.90;44.86;102857.66;4993132;28;20038;-74
2021/08/31 09:27:07;;;;;;;13.15;4.60;;;;;;;26.94;41.23;102861.75;4993703;28;20448;-73
2021/08/31 09:29:41;;;;;;;15.95;4.40;;;;;;;28.04;39.60;102867.31;4992844;28;20065;-74
2021/08/31 09:32:11;;;;;;;13.25;4.78;;;;;;;26.81;39.66;102859.78;4993498;28;20076;-75
2021/08/31 09:34:45;;;;;;;30.75;7.00;;;;;;;24.72;44.26;102867.53;4992998;28;20035;-75
2021/08/31 09:37:30;;;;;;;19.48;5.28;;;;;;;22.87;49.81;102859.78;4993522;28;20049;-74
2021/08/31 09:40:16;;;;;;;16.02;5.30;;;;;;;22.10;52.79;102860.13;4993731;28;20140;-74
2021/08/31 09:43:04;;;;;;;14.93;5.28;;;;;;;21.81;52.40;102861.38;4992814;28;20034;-74
2021/08/31 09:45:35;;;;;;;18.65;5.00;;;;;;;21.51;54.33;102869.06;4992591;28;20463;-75
2021/08/31 09:48:02;;;;;;;22.30;5.40;;;;;;;21.10;54.25;102866.97;4993573;28;20030;-74
2021/08/31 09:50:30;;;;;;;17.23;4.88;;;;;;;21.09;56.01;102865.28;4993439;28;20042;-74
2021/08/31 09:53:06;;;;;;;19.90;5.32;;;;;;;21.33;56.31;102874.53;4992905;28;20498;-73
2021/08/31 09:55:33;;;;;;;25.20;5.32;;;;;;;21.62;55.37;102876.06;4992849;28;20036;-74
2021/08/31 09:58:12;;;;;;;14.32;5.32;;;;;;;21.74;54.58;102874.75;4993351;28;20041;-74
2021/08/31 10:00:40;;;;;;;14.57;5.30;;;;;;;21.88;54.76;102875.97;4992649;28;20125;-73
2021/08/31 10:03:06;;;;;;;14.48;5.22;;;;;;;21.92;54.96;102871.94;4993131;28;20026;-73
2021/08/31 10:05:33;;;;;;;14.77;3.78;;;;;;;21.93;53.95;102876.34;4992369;28;20395;-74
2021/08/31 10:08:00;;;;;;;12.30;4.25;;;;;;;21.67;54.96;102873.72;4993147;28;20031;-74
2021/08/31 10:10:27;;;;;;;14.35;3.88;;;;;;;21.62;55.53;102870.66;4993135;28;20421;-73
2021/08/31 10:12:55;;;;;;;13.02;4.65;;;;;;;21.75;55.28;102881.00;4992159;28;20096;-73
2021/08/31 10:15:22;;;;;;;15.15;4.88;;;;;;;21.83;54.15;102871.06;4993073;28;20034;-73
2021/08/31 10:17:50;;;;;;;16.90;5.35;;;;;;;21.80;54.11;102878.66;4993131;28;20034;-74
2021/08/31 10:20:23;;;;;;;17.27;5.10;;;;;;;21.86;53.77;102880.72;4999407;28;20041;-73
2021/08/31 10:22:49;;;;;;;17.58;5.07;;;;;;;21.93;54.36;102876.34;4998962;28;20030;-73
2021/08/31 10:25:19;;;;;;;15.70;5.20;;;;;;;22.12;53.13;102871.63;4999479;28;20041;-76
2021/08/31 10:27:45;;;;;;;12.77;4.22;;;;;;;22.50;52.81;102874.75;4998885;28;20084;-72
2021/08/31 10:30:23;;;;;;;22.25;5.25;;;;;;;22.39;53.91;102878.63;4999270;28;20390;-73
2021/08/31 10:32:57;;;;;;;25.13;5.25;;;;;;;22.33;54.67;102879.31;4998824;28;20030;-73
2021/08/31 10:35:28;;;;;;;15.55;4.85;;;;;;;22.14;54.48;102880.47;4999367;28;20057;-73
2021/08/31 10:37:53;;;;;;;16.23;5.03;;;;;;;22.21;56.05;102888.75;4998500;28;20038;-73
2021/08/31 10:40:47;;;;;;;17.45;4.88;;;;;;;22.26;53.27;102883.66;4999480;28;20038;-72
2021/08/31 10:43:14;;;;;;;16.73;5.05;;;;;;;22.05;54.32;102889.56;4999373;28;20038;-72
2021/08/31 10:45:42;;;;;;;15.50;4.60;;;;;;;21.79;55.09;102891.34;4998431;28;20536;-74
2021/08/31 10:48:23;;;;;;;20.42;5.53;;;;;;;21.51;57.52;102895.31;4999074;28;20042;-73
2021/08/31 10:51:00;;;;;;;14.30;4.63;;;;;;;21.50;56.23;102899.88;4998736;28;20390;-73
2021/08/31 10:53:47;;;;;;;18.02;4.82;;;;;;;21.30;55.94;102891.09;4999228;28;20030;-73
2021/08/31 10:56:22;;;;;;;15.90;4.50;;;;;;;21.31;55.58;102896.34;4999374;28;20513;-72
2021/08/31 10:58:51;;;;;;;16.45;4.50;;;;;;;21.54;55.49;102895.84;4998372;28;20042;-73
2021/08/31 11:01:22;;;;;;;10.88;3.95;;;;;;;21.56;55.82;102896.53;4999147;28;20041;-73
2021/08/31 11:03:51;;;;;;;14.30;4.63;;;;;;;21.52;55.26;102897.00;4997270;28;20041;-73
2021/08/31 11:06:23;;;;;;;18.27;5.03;;;;;;;21.56;55.34;102899.22;4999279;28;20022;-73
2021/08/31 11:09:07;;;;;;;18.70;4.93;;;;;;;22.32;54.28;102899.31;4998316;28;20414;-73
2021/08/31 11:11:33;;;;;;;16.20;4.88;;;;;;;23.64;51.73;102905.44;4999189;28;20073;-73